Time;durP1;ratioP1;P1;durP2;ratioP2;P2;SDS_P1;SDS_P2;PMS_P1;PMS_P2;Temp;Humidity;BMP_temperature;BMP_pressure;BME280_temperature;BME280_humidity;BME280_pressure;Samples;Min_cycle;Max_cycle;Signal;HPM_P1;HPM_P2
2023/05/23 00:01:44;;;;;;;36.27;14.77;;;12.50;99.90;;;;;;5096261;28;20040;-70
2023/05/23 00:04:15;;;;;;;32.50;14.60;;;12.50;99.90;;;;;;5093306;28;20114;-70
2023/05/23 00:06:45;;;;;;;32.77;13.50;;;12.50;99.90;;;;;;5074067;28;20835;-70
2023/05/23 00:09:13;;;;;;;30.20;13.87;;;12.50;99.90;;;;;;5090538;28;20318;-70
2023/05/23 00:11:43;;;;;;;34.27;14.30;;;12.50;99.90;;;;;;5074284;28;20281;-70
2023/05/23 00:14:15;;;;;;;34.63;14.60;;;12.50;99.90;;;;;;5087880;28;20281;-70
2023/05/23 00:16:43;;;;;;;30.43;14.17;;;12.50;99.90;;;;;;5090732;28;20717;-70
2023/05/23 00:19:10;;;;;;;29.60;12.73;;;12.50;99.90;;;;;;5073408;28;20297;-70
2023/05/23 00:21:36;;;;;;;30.80;12.83;;;12.50;99.90;;;;;;5090426;28;20281;-70
2023/05/23 00:24:03;;;;;;;29.13;13.23;;;12.50;99.90;;;;;;5090971;28;20833;-70
2023/05/23 00:26:29;;;;;;;33.07;13.73;;;12.50;99.90;;;;;;5090401;28;20289;-70
2023/05/23 00:28:55;;;;;;;28.77;12.47;;;12.50;99.90;;;;;;5071415;28;20690;-70
2023/05/23 00:31:21;;;;;;;28.60;11.47;;;12.50;99.90;;;;;;5090332;28;20075;-70
2023/05/23 00:33:47;;;;;;;26.00;11.10;;;12.50;99.90;;;;;;5090931;28;20039;-70
2023/05/23 00:36:13;;;;;;;32.87;13.07;;;12.50;99.90;;;;;;5090592;28;20738;-70
2023/05/23 00:38:38;;;;;;;32.77;13.93;;;12.50;99.90;;;;;;5093099;28;20046;-70
2023/05/23 00:41:05;;;;;;;27.60;12.43;;;12.40;99.90;;;;;;5090017;28;20050;-70
2023/05/23 00:43:30;;;;;;;25.97;11.87;;;12.40;99.90;;;;;;5090809;28;20144;-70
2023/05/23 00:45:57;;;;;;;30.67;12.03;;;12.40;99.90;;;;;;5073620;28;20281;-69
2023/05/23 00:48:24;;;;;;;29.67;11.03;;;12.50;99.90;;;;;;5089636;28;20126;-69
2023/05/23 00:50:51;;;;;;;28.53;11.80;;;12.50;99.90;;;;;;5073333;28;20285;-69
2023/05/23 00:53:17;;;;;;;34.53;11.67;;;12.40;99.90;;;;;;5090081;28;20289;-69
2023/05/23 00:55:44;;;;;;;29.20;11.50;;;12.40;99.90;;;;;;5076832;28;20371;-69
2023/05/23 00:58:10;;;;;;;23.97;10.90;;;12.40;99.90;;;;;;5089710;28;20120;-69
2023/05/23 01:00:37;;;;;;;28.65;11.60;;;12.40;99.90;;;;;;5075051;28;20711;-69
2023/05/23 01:03:03;;;;;;;29.73;10.97;;;12.40;99.90;;;;;;5095332;28;20587;-69
2023/05/23 01:05:29;;;;;;;25.43;10.50;;;12.40;99.90;;;;;;5094279;28;20377;-70
2023/05/23 01:07:55;;;;;;;21.30;9.60;;;12.40;99.90;;;;;;5094678;28;20293;-70
2023/05/23 01:10:27;;;;;;;24.67;9.97;;;12.40;99.90;;;;;;5093663;28;20641;-70
2023/05/23 01:13:17;;;;;;;29.33;10.17;;;12.40;99.90;;;;;;5076961;28;20047;-70
2023/05/23 01:16:10;;;;;;;25.07;9.63;;;12.40;99.90;;;;;;5073005;28;20312;-70
2023/05/23 01:18:40;;;;;;;26.70;9.67;;;12.40;99.90;;;;;;5093109;28;20281;-70
2023/05/23 01:21:16;;;;;;;26.33;10.00;;;12.40;99.90;;;;;;5098716;27;20806;-70
2023/05/23 01:23:54;;;;;;;23.90;10.07;;;12.30;99.90;;;;;;5094276;28;20316;-70
2023/05/23 01:26:42;;;;;;;22.80;9.80;;;12.30;99.90;;;;;;5076188;28;20316;-70
2023/05/23 01:29:12;;;;;;;21.23;9.37;;;12.30;99.90;;;;;;5092636;28;20285;-70
2023/05/23 01:31:44;;;;;;;22.13;9.20;;;12.30;99.90;;;;;;5076771;28;20771;-70
2023/05/23 01:34:13;;;;;;;22.37;9.10;;;12.30;99.90;;;;;;5077035;28;20274;-70
2023/05/23 01:36:41;;;;;;;24.43;8.63;;;12.30;99.90;;;;;;5092548;28;20643;-70
2023/05/23 01:39:07;;;;;;;22.50;9.03;;;12.30;99.90;;;;;;5083210;27;20285;-70
2023/05/23 01:41:32;;;;;;;26.93;8.93;;;12.30;99.90;;;;;;5081906;27;20285;-70
2023/05/23 01:43:59;;;;;;;22.23;8.90;;;12.30;99.90;;;;;;5106146;27;20038;-70
2023/05/23 01:46:26;;;;;;;23.03;8.57;;;12.30;99.90;;;;;;5092984;28;20043;-70
2023/05/23 01:48:54;;;;;;;21.13;7.93;;;12.30;99.90;;;;;;5075687;28;20308;-70
2023/05/23 01:51:21;;;;;;;22.40;9.20;;;12.30;99.90;;;;;;5076260;27;20418;-70
2023/05/23 01:53:49;;;;;;;23.03;8.50;;;12.30;99.90;;;;;;5083622;28;20888;-70
2023/05/23 01:56:15;;;;;;;21.00;8.17;;;12.30;99.90;;;;;;5112939;27;21072;-70
2023/05/23 01:58:40;;;;;;;22.07;8.33;;;12.30;99.90;;;;;;5076255;28;20965;-70
2023/05/23 02:01:06;;;;;;;26.73;8.73;;;12.40;99.90;;;;;;5092047;27;20304;-70
2023/05/23 02:03:32;;;;;;;21.93;7.67;;;12.40;99.90;;;;;;5099436;28;20042;-70
2023/05/23 02:05:58;;;;;;;31.03;8.50;;;12.40;99.90;;;;;;5075326;28;20047;-70
2023/05/23 02:08:23;;;;;;;21.73;8.20;;;12.40;99.90;;;;;;5075822;28;20036;-70
2023/05/23 02:10:49;;;;;;;31.80;8.83;;;12.40;99.90;;;;;;5093146;28;20047;-70
2023/05/23 02:13:15;;;;;;;23.87;8.70;;;12.30;99.90;;;;;;5091967;28;20039;-70
2023/05/23 02:15:40;;;;;;;24.57;8.00;;;12.30;99.90;;;;;;5088188;28;20035;-69
2023/05/23 02:18:06;;;;;;;21.83;7.57;;;12.30;99.90;;;;;;5098776;27;20107;-69
2023/05/23 02:20:32;;;;;;;20.93;8.03;;;12.30;99.90;;;;;;5092819;28;20039;-70
2023/05/23 02:22:58;;;;;;;23.10;8.53;;;12.30;99.90;;;;;;5099695;28;20096;-70
2023/05/23 02:25:23;;;;;;;26.33;8.43;;;12.20;99.90;;;;;;5091734;28;20636;-68
2023/05/23 02:27:49;;;;;;;21.17;6.90;;;12.20;99.90;;;;;;5097535;27;20047;-69
2023/05/23 02:30:15;;;;;;;24.10;7.90;;;12.10;99.90;;;;;;5075174;28;20163;-69
2023/05/23 02:32:40;;;;;;;22.17;7.77;;;12.10;99.90;;;;;;5101508;27;20084;-69
2023/05/23 02:35:07;;;;;;;23.33;7.73;;;12.00;99.90;;;;;;5077014;28;20460;-69
2023/05/23 02:37:33;;;;;;;22.25;7.55;;;12.00;99.90;;;;;;5074694;28;20055;-69
2023/05/23 02:39:59;;;;;;;19.27;7.33;;;12.00;99.90;;;;;;5099741;28;20066;-69
2023/05/23 02:42:24;;;;;;;21.83;7.90;;;12.00;99.90;;;;;;5092542;28;20031;-69
2023/05/23 02:44:50;;;;;;;19.57;7.40;;;11.90;99.90;;;;;;5074646;28;20032;-70
2023/05/23 02:47:16;;;;;;;20.13;7.80;;;11.90;99.90;;;;;;5074492;28;20028;-70
2023/05/23 02:49:41;;;;;;;25.47;7.93;;;11.90;99.90;;;;;;5075264;28;20047;-70
2023/05/23 02:52:07;;;;;;;22.17;8.50;;;11.90;99.90;;;;;;5094123;27;20036;-69
2023/05/23 02:54:33;;;;;;;23.83;8.43;;;11.90;99.90;;;;;;5095208;27;20043;-69
2023/05/23 02:56:58;;;;;;;22.47;7.07;;;11.90;99.90;;;;;;5099003;28;20051;-69
2023/05/23 02:59:25;;;;;;;20.67;7.07;;;11.90;99.90;;;;;;5091815;28;20058;-69
2023/05/23 03:01:51;;;;;;;22.20;7.03;;;11.90;99.90;;;;;;5084875;27;20129;-69
2023/05/23 03:04:17;;;;;;;26.83;7.87;;;11.90;99.90;;;;;;5074391;28;20043;-69
2023/05/23 03:06:43;;;;;;;22.43;6.00;;;11.90;99.90;;;;;;5091559;28;20041;-69
2023/05/23 03:09:09;;;;;;;17.83;5.87;;;11.90;99.90;;;;;;5091666;28;20277;-69
2023/05/23 03:11:36;;;;;;;18.00;6.65;;;11.90;99.90;;;;;;5091842;28;20039;-69
2023/05/23 03:14:01;;;;;;;24.60;6.50;;;11.90;99.90;;;;;;5074031;28;20032;-69
2023/05/23 03:16:27;;;;;;;20.67;6.33;;;11.90;99.90;;;;;;5091155;28;20038;-69
2023/05/23 03:18:53;;;;;;;19.73;4.70;;;11.90;99.90;;;;;;5064401;28;20430;-69
2023/05/23 03:21:18;;;;;;;16.83;4.87;;;11.90;99.90;;;;;;5091517;28;20055;-69
2023/05/23 03:23:44;;;;;;;19.77;4.97;;;11.90;99.90;;;;;;5092025;28;20051;-70
2023/05/23 03:26:10;;;;;;;16.63;5.23;;;11.90;99.90;;;;;;5074885;27;20035;-70
2023/05/23 03:28:36;;;;;;;12.47;5.03;;;11.90;99.90;;;;;;5085009;28;20036;-69
2023/05/23 03:31:02;;;;;;;16.03;4.90;;;11.90;99.90;;;;;;5074431;28;20284;-69
2023/05/23 03:33:27;;;;;;;14.70;5.03;;;11.80;99.90;;;;;;5091049;28;20043;-69
2023/05/23 03:35:53;;;;;;;15.47;5.00;;;11.80;99.90;;;;;;5090554;28;20119;-69
2023/05/23 03:38:19;;;;;;;15.57;5.50;;;11.70;99.90;;;;;;5089325;27;20465;-69
2023/05/23 03:40:45;;;;;;;20.67;6.33;;;11.70;99.90;;;;;;5099759;28;20103;-69
2023/05/23 03:43:11;;;;;;;16.77;5.60;;;11.70;99.90;;;;;;5090935;28;20273;-69
2023/05/23 03:45:36;;;;;;;18.47;5.10;;;11.70;99.90;;;;;;5090306;28;20036;-70
2023/05/23 03:48:02;;;;;;;18.13;4.90;;;11.70;99.90;;;;;;5073889;28;20048;-69
2023/05/23 03:50:28;;;;;;;20.47;5.67;;;11.70;99.90;;;;;;5074406;28;20073;-69
2023/05/23 03:52:54;;;;;;;19.00;4.80;;;11.70;99.90;;;;;;5073679;28;20043;-69
2023/05/23 03:55:24;;;;;;;22.30;5.00;;;11.60;99.90;;;;;;5090070;28;20027;-70
2023/05/23 03:57:50;;;;;;;20.98;4.47;;;11.60;99.90;;;;;;5087950;27;20039;-69
2023/05/23 04:00:17;;;;;;;17.00;4.90;;;11.50;99.90;;;;;;5076734;28;20392;-69
2023/05/23 04:02:45;;;;;;;15.30;4.97;;;11.50;99.90;;;;;;5088564;28;20594;-69
2023/05/23 04:05:12;;;;;;;15.13;4.07;;;11.50;99.90;;;;;;5089598;28;20040;-69
2023/05/23 04:07:38;;;;;;;17.70;4.30;;;11.50;99.90;;;;;;5090702;28;20028;-69
2023/05/23 04:10:05;;;;;;;14.13;4.60;;;11.40;99.90;;;;;;5074004;28;20063;-70
2023/05/23 04:12:30;;;;;;;13.55;4.68;;;11.40;99.90;;;;;;5088050;28;20395;-70
2023/05/23 04:14:56;;;;;;;15.23;4.20;;;11.30;99.90;;;;;;5090581;28;20122;-70
2023/05/23 04:17:23;;;;;;;17.17;4.43;;;11.30;99.90;;;;;;5090864;28;20533;-70
2023/05/23 04:19:51;;;;;;;14.52;4.03;;;11.30;99.90;;;;;;5090254;28;20038;-70
2023/05/23 04:22:17;;;;;;;17.13;4.80;;;11.20;99.90;;;;;;5093924;28;20074;-70
2023/05/23 04:24:43;;;;;;;15.57;4.87;;;11.20;99.90;;;;;;5072623;28;20444;-69
2023/05/23 04:27:09;;;;;;;19.50;4.97;;;11.20;99.90;;;;;;5089979;28;20039;-69
2023/05/23 04:29:34;;;;;;;15.47;4.70;;;11.20;99.90;;;;;;5091262;28;20844;-70
2023/05/23 04:32:01;;;;;;;18.00;5.40;;;11.20;99.90;;;;;;5077671;28;20066;-70
2023/05/23 04:34:27;;;;;;;14.80;5.35;;;11.20;99.90;;;;;;5074700;28;20588;-70
2023/05/23 04:36:53;;;;;;;18.87;5.57;;;11.20;99.90;;;;;;5092364;28;20075;-70
2023/05/23 04:39:19;;;;;;;17.02;4.88;;;11.10;99.90;;;;;;5081547;28;20514;-70
2023/05/23 04:41:45;;;;;;;16.25;5.22;;;11.00;99.90;;;;;;5089005;28;20160;-69
2023/05/23 04:44:11;;;;;;;13.70;5.37;;;11.00;99.90;;;;;;5092676;28;20067;-69
2023/05/23 04:46:40;;;;;;;12.90;5.53;;;11.00;99.90;;;;;;5100704;27;20031;-70
2023/05/23 04:49:07;;;;;;;15.13;5.20;;;11.00;99.90;;;;;;5098375;28;20051;-70
2023/05/23 04:51:34;;;;;;;20.77;5.85;;;11.00;99.90;;;;;;5095336;28;20053;-70
2023/05/23 04:54:00;;;;;;;17.67;5.78;;;11.00;99.90;;;;;;5077212;27;20088;-69
2023/05/23 04:56:28;;;;;;;15.55;6.03;;;11.00;99.90;;;;;;5096790;28;20097;-69
2023/05/23 04:58:55;;;;;;;17.17;6.35;;;11.00;99.90;;;;;;5092016;28;20127;-70
2023/05/23 05:01:23;;;;;;;21.40;6.55;;;10.90;99.90;;;;;;5098964;27;20040;-70
2023/05/23 05:03:49;;;;;;;18.05;5.90;;;10.90;99.90;;;;;;5095978;28;20056;-70
2023/05/23 05:06:16;;;;;;;16.85;5.88;;;10.90;99.90;;;;;;5092571;28;20043;-70
2023/05/23 05:08:42;;;;;;;17.27;6.15;;;10.80;99.90;;;;;;5094322;27;20395;-70
2023/05/23 05:11:08;;;;;;;13.10;5.75;;;10.90;99.90;;;;;;5075488;27;20039;-70
2023/05/23 05:13:34;;;;;;;18.65;6.40;;;10.90;99.90;;;;;;5078666;27;20067;-70
2023/05/23 05:16:00;;;;;;;15.07;5.23;;;10.90;99.90;;;;;;5080096;27;20074;-69
2023/05/23 05:18:26;;;;;;;11.00;4.20;;;10.90;99.90;;;;;;5100329;28;20281;-69
2023/05/23 05:20:52;;;;;;;12.02;4.80;;;10.90;99.90;;;;;;5077847;28;20055;-69
2023/05/23 05:23:18;;;;;;;12.97;5.00;;;11.00;99.90;;;;;;5096730;28;20047;-70
2023/05/23 05:25:44;;;;;;;12.20;3.70;;;10.90;99.90;;;;;;5094743;28;20035;-70
2023/05/23 05:28:10;;;;;;;13.75;4.40;;;10.90;99.90;;;;;;5097516;27;20039;-70
2023/05/23 05:30:36;;;;;;;12.23;3.60;;;10.90;99.90;;;;;;5094352;28;20563;-70
2023/05/23 05:33:03;;;;;;;15.33;4.87;;;11.00;99.90;;;;;;5098912;28;20048;-70
2023/05/23 05:35:32;;;;;;;13.85;4.20;;;11.00;99.90;;;;;;5099434;28;20078;-70
2023/05/23 05:37:58;;;;;;;13.85;3.45;;;11.00;99.90;;;;;;5074086;28;20498;-70
2023/05/23 05:40:24;;;;;;;16.27;4.07;;;11.00;99.90;;;;;;5088828;27;20061;-70
2023/05/23 05:42:50;;;;;;;21.40;4.23;;;11.00;99.90;;;;;;5075973;28;20126;-70
2023/05/23 05:45:16;;;;;;;12.53;3.63;;;10.90;99.90;;;;;;5093009;28;20281;-69
2023/05/23 05:47:43;;;;;;;19.63;4.37;;;10.90;99.90;;;;;;5093846;28;20280;-69
2023/05/23 05:50:09;;;;;;;14.98;3.95;;;11.00;99.90;;;;;;5076634;28;20079;-69
2023/05/23 05:52:38;;;;;;;25.42;4.30;;;11.00;99.90;;;;;;5076161;28;20609;-69
2023/05/23 05:55:10;;;;;;;16.85;3.67;;;11.00;99.90;;;;;;5095368;28;20114;-69
2023/05/23 05:57:39;;;;;;;18.77;4.18;;;11.00;99.90;;;;;;5093002;28;20046;-69
2023/05/23 06:00:17;;;;;;;17.40;3.70;;;11.00;99.90;;;;;;5074975;28;20082;-69
2023/05/23 06:02:47;;;;;;;22.65;3.63;;;11.10;99.90;;;;;;5076934;28;20037;-70
2023/05/23 06:05:15;;;;;;;15.13;3.65;;;11.20;99.90;;;;;;5091530;28;20036;-70
2023/05/23 06:07:42;;;;;;;22.42;3.83;;;11.30;99.90;;;;;;5092116;28;20106;-69
2023/05/23 06:10:08;;;;;;;17.77;3.93;;;11.40;99.90;;;;;;5092664;28;20039;-70
2023/05/23 06:12:34;;;;;;;21.53;4.50;;;11.60;99.90;;;;;;5075335;28;20338;-70
2023/05/23 06:15:00;;;;;;;17.13;3.70;;;11.80;99.90;;;;;;5092575;28;20297;-70
2023/05/23 06:17:27;;;;;;;14.37;3.63;;;12.10;99.90;;;;;;5090462;28;20812;-70
2023/05/23 06:19:52;;;;;;;16.20;3.33;;;12.40;99.20;;;;;;5070570;28;20523;-70
2023/05/23 06:22:18;;;;;;;20.67;3.93;;;12.50;96.30;;;;;;5092811;28;20324;-70
2023/05/23 06:24:45;;;;;;;16.40;3.83;;;12.50;96.30;;;;;;5092273;28;20040;-70
2023/05/23 06:27:11;;;;;;;20.20;4.10;;;12.30;96.30;;;;;;5092121;28;20040;-70
2023/05/23 06:29:37;;;;;;;14.10;3.10;;;12.10;94.70;;;;;;5081372;28;20971;-70
2023/05/23 06:32:03;;;;;;;20.30;3.30;;;12.10;96.20;;;;;;5092216;28;20288;-70
2023/05/23 06:34:29;;;;;;;14.27;3.40;;;12.10;96.30;;;;;;5092414;28;20270;-70
2023/05/23 06:36:55;;;;;;;19.43;4.33;;;12.20;96.20;;;;;;5091641;28;20278;-70
2023/05/23 06:39:20;;;;;;;21.60;3.57;;;12.30;94.50;;;;;;5076281;28;20040;-71
2023/05/23 06:41:46;;;;;;;18.10;3.30;;;12.30;94.10;;;;;;5092369;28;20148;-71
2023/05/23 06:44:12;;;;;;;18.83;3.47;;;12.30;94.70;;;;;;5094528;28;20043;-71
2023/05/23 06:46:38;;;;;;;27.00;5.00;;;12.30;95.00;;;;;;5089356;28;20035;-71
2023/05/23 06:49:04;;;;;;;13.73;3.07;;;12.30;94.50;;;;;;5094011;28;20114;-71
2023/05/23 06:51:30;;;;;;;18.50;3.93;;;12.30;94.80;;;;;;5093808;28;20032;-72
2023/05/23 06:53:56;;;;;;;18.33;3.40;;;12.30;94.00;;;;;;5092546;27;20437;-70
2023/05/23 06:56:22;;;;;;;20.47;3.33;;;12.30;93.00;;;;;;5079679;28;20285;-71
2023/05/23 06:58:48;;;;;;;15.27;2.87;;;12.20;91.60;;;;;;5094196;28;20357;-71
2023/05/23 07:01:14;;;;;;;14.17;3.27;;;12.10;92.60;;;;;;5096743;27;20376;-71
2023/05/23 07:03:42;;;;;;;20.17;3.13;;;12.00;92.70;;;;;;5093379;28;20034;-71
2023/05/23 07:06:07;;;;;;;12.60;2.40;;;12.00;92.50;;;;;;5093144;28;20044;-71
2023/05/23 07:08:33;;;;;;;20.37;3.37;;;12.00;92.70;;;;;;5093226;28;20289;-71
2023/05/23 07:10:59;;;;;;;14.60;3.03;;;12.10;93.30;;;;;;5093757;28;20043;-71
2023/05/23 07:13:25;;;;;;;17.57;3.70;;;12.20;93.50;;;;;;5076558;28;20046;-71
2023/05/23 07:15:50;;;;;;;17.93;2.90;;;12.40;93.20;;;;;;5076561;28;20595;-71
2023/05/23 07:18:16;;;;;;;21.73;4.40;;;12.50;92.70;;;;;;5093357;28;20042;-70
2023/05/23 07:20:42;;;;;;;20.23;3.87;;;12.50;92.50;;;;;;5093585;28;20039;-71
2023/05/23 07:23:07;;;;;;;21.93;3.00;;;12.50;91.80;;;;;;5094888;28;20035;-71
2023/05/23 07:25:33;;;;;;;17.70;3.00;;;12.50;92.20;;;;;;5090360;28;20032;-71
2023/05/23 07:27:59;;;;;;;20.40;3.93;;;12.60;92.20;;;;;;5091195;28;20549;-72
2023/05/23 07:30:25;;;;;;;20.30;3.57;;;12.60;90.40;;;;;;5075554;28;20493;-71
2023/05/23 07:32:54;;;;;;;23.07;4.07;;;12.70;89.90;;;;;;5093569;28;20047;-72
2023/05/23 07:35:24;;;;;;;20.60;3.20;;;12.90;89.10;;;;;;5092705;28;20121;-72
2023/05/23 07:37:52;;;;;;;15.17;2.83;;;12.90;87.70;;;;;;5075947;28;20350;-72
2023/05/23 07:40:18;;;;;;;16.47;3.10;;;12.90;88.30;;;;;;5077197;28;20309;-72
2023/05/23 07:42:44;;;;;;;16.20;3.47;;;12.90;86.70;;;;;;5092457;28;20344;-72
2023/05/23 07:45:10;;;;;;;16.03;3.43;;;13.10;87.90;;;;;;5075219;28;20289;-72
2023/05/23 07:47:36;;;;;;;18.20;3.20;;;13.40;86.30;;;;;;5091701;28;20362;-73
2023/05/23 07:50:02;;;;;;;18.20;3.37;;;13.70;85.30;;;;;;5089895;28;20289;-73
2023/05/23 07:52:30;;;;;;;19.63;3.67;;;13.70;83.10;;;;;;5090808;28;20064;-72
2023/05/23 07:54:55;;;;;;;16.93;4.33;;;13.60;81.80;;;;;;5078303;28;20334;-72
2023/05/23 07:57:23;;;;;;;21.70;3.93;;;13.50;84.00;;;;;;5091631;28;20277;-71
2023/05/23 07:59:50;;;;;;;21.70;3.00;;;13.60;85.40;;;;;;5071931;28;20066;-71
2023/05/23 08:02:16;;;;;;;15.67;3.57;;;13.80;83.80;;;;;;5093703;28;20294;-72
2023/05/23 08:04:42;;;;;;;19.13;3.80;;;13.80;80.60;;;;;;5088670;28;20289;-71
2023/05/23 08:07:08;;;;;;;15.00;2.97;;;13.70;78.50;;;;;;5089210;28;20043;-72
2023/05/23 08:09:34;;;;;;;15.40;3.23;;;13.50;79.70;;;;;;5088498;28;20288;-71
2023/05/23 08:12:00;;;;;;;12.87;2.63;;;13.40;81.80;;;;;;5074830;28;20285;-72
2023/05/23 08:14:26;;;;;;;19.53;3.37;;;13.50;81.60;;;;;;5087778;28;20297;-72
2023/05/23 08:16:52;;;;;;;13.93;3.07;;;13.60;81.60;;;;;;5093831;28;20062;-72
2023/05/23 08:19:17;;;;;;;17.17;3.60;;;13.80;82.00;;;;;;5093070;28;20707;-72
2023/05/23 08:21:44;;;;;;;17.80;3.27;;;13.80;80.90;;;;;;5094233;28;20372;-71
2023/05/23 08:24:11;;;;;;;18.63;3.33;;;13.60;80.60;;;;;;5090231;28;20044;-72
2023/05/23 08:26:38;;;;;;;18.77;3.53;;;13.50;81.30;;;;;;5091288;28;20289;-71
2023/05/23 08:29:04;;;;;;;15.70;2.63;;;13.50;81.30;;;;;;5076881;28;20274;-71
2023/05/23 08:31:30;;;;;;;13.27;3.27;;;13.60;81.20;;;;;;5088378;28;20302;-72
2023/05/23 08:33:58;;;;;;;17.77;3.33;;;13.70;80.00;;;;;;5073500;28;20289;-71
2023/05/23 08:36:24;;;;;;;15.63;2.97;;;13.80;80.50;;;;;;5091206;28;20285;-71
2023/05/23 08:38:53;;;;;;;14.03;2.67;;;13.90;79.90;;;;;;5074529;28;20343;-72
2023/05/23 08:41:21;;;;;;;15.03;3.50;;;14.20;80.50;;;;;;5074984;28;20527;-75
2023/05/23 08:43:47;;;;;;;19.23;3.90;;;14.60;80.80;;;;;;5091537;28;20273;-71
2023/05/23 08:46:14;;;;;;;18.03;3.40;;;14.90;79.50;;;;;;5092397;28;20281;-71
2023/05/23 08:48:42;;;;;;;16.93;3.93;;;14.90;76.70;;;;;;5092857;28;20277;-72
2023/05/23 08:51:14;;;;;;;17.83;2.90;;;14.90;78.80;;;;;;5092093;28;20988;-71
2023/05/23 08:53:46;;;;;;;21.27;4.00;;;15.00;76.80;;;;;;5090737;28;20274;-72
2023/05/23 08:56:12;;;;;;;15.80;3.70;;;15.00;76.00;;;;;;5098217;28;20773;-71
2023/05/23 08:58:42;;;;;;;18.03;3.40;;;14.90;77.40;;;;;;5094479;28;20384;-71
2023/05/23 09:01:09;;;;;;;19.80;3.27;;;14.60;77.20;;;;;;5094448;27;20461;-71
2023/05/23 09:03:39;;;;;;;21.57;3.67;;;14.70;79.00;;;;;;5095150;28;20289;-72
2023/05/23 09:06:09;;;;;;;17.73;3.67;;;14.70;77.50;;;;;;5093936;28;20293;-71
2023/05/23 09:08:36;;;;;;;16.67;2.87;;;14.60;77.40;;;;;;5093335;28;20365;-71
2023/05/23 09:11:03;;;;;;;19.80;3.93;;;14.70;77.00;;;;;;5093386;28;20281;-71
2023/05/23 09:13:30;;;;;;;13.03;3.43;;;14.50;76.50;;;;;;5075758;28;20374;-71
2023/05/23 09:15:58;;;;;;;14.43;2.70;;;14.30;77.60;;;;;;5076474;28;20293;-71
2023/05/23 09:18:43;;;;;;;12.23;3.03;;;14.40;77.80;;;;;;5092839;28;20269;-71
2023/05/23 09:21:10;;;;;;;22.92;3.10;;;14.60;75.90;;;;;;5088872;28;20366;-71
2023/05/23 09:23:40;;;;;;;17.70;3.23;;;14.60;77.10;;;;;;5074861;28;20121;-71
2023/05/23 09:26:09;;;;;;;16.50;3.17;;;14.90;77.80;;;;;;5093155;28;20292;-71
2023/05/23 09:28:37;;;;;;;20.37;4.27;;;15.10;76.80;;;;;;5077429;28;20277;-71
2023/05/23 09:31:06;;;;;;;14.63;2.93;;;15.20;76.50;;;;;;5092889;28;20285;-71
2023/05/23 09:33:45;;;;;;;15.13;3.30;;;15.00;77.10;;;;;;5092944;28;20281;-71
2023/05/23 09:36:11;;;;;;;16.50;2.77;;;14.90;76.50;;;;;;5092215;28;20309;-71
2023/05/23 09:38:38;;;;;;;14.10;3.30;;;14.70;76.70;;;;;;5075396;27;20315;-71
2023/05/23 09:41:04;;;;;;;16.83;2.63;;;14.60;77.60;;;;;;5091258;28;20104;-70
2023/05/23 09:43:30;;;;;;;11.73;3.23;;;14.60;76.70;;;;;;5092472;28;20297;-71
2023/05/23 09:46:11;;;;;;;12.03;2.70;;;14.60;75.20;;;;;;5073594;28;20281;-71
2023/05/23 09:48:38;;;;;;;16.07;2.47;;;14.70;74.00;;;;;;5069267;28;20047;-71
2023/05/23 09:51:09;;;;;;;19.73;2.73;;;14.80;74.90;;;;;;5098058;27;20298;-71
2023/05/23 09:53:34;;;;;;;14.63;2.80;;;15.00;73.60;;;;;;5095382;28;20692;-71
2023/05/23 09:56:02;;;;;;;11.50;2.40;;;15.30;71.90;;;;;;5095375;28;20369;-71
2023/05/23 09:58:31;;;;;;;14.07;3.00;;;15.40;71.00;;;;;;5092526;28;20047;-71
2023/05/23 10:01:02;;;;;;;19.10;3.67;;;15.60;70.70;;;;;;5078303;27;20297;-71
2023/05/23 10:03:53;;;;;;;12.90;2.57;;;15.50;69.90;;;;;;5074556;28;20300;-71
2023/05/23 10:06:51;;;;;;;13.70;2.50;;;15.40;70.90;;;;;;5091053;28;20277;-71
2023/05/23 10:09:19;;;;;;;13.70;2.80;;;15.40;71.10;;;;;;5075527;28;20273;-72
2023/05/23 10:12:06;;;;;;;12.67;2.70;;;15.60;71.60;;;;;;5092923;28;20769;-71
2023/05/23 10:14:37;;;;;;;11.67;3.20;;;15.40;69.60;;;;;;5074533;28;20273;-72
2023/05/23 10:17:12;;;;;;;13.17;2.40;;;15.60;70.00;;;;;;5092486;28;20274;-72
2023/05/23 10:19:47;;;;;;;11.77;2.50;;;15.80;70.50;;;;;;5092305;28;20301;-72
2023/05/23 10:22:14;;;;;;;13.30;3.13;;;15.90;71.70;;;;;;5092396;28;20555;-72
2023/05/23 10:24:41;;;;;;;16.37;2.97;;;16.00;70.00;;;;;;5075152;28;20035;-71
2023/05/23 10:27:07;;;;;;;13.90;2.63;;;15.80;67.90;;;;;;5066959;28;20356;-72
2023/05/23 10:29:34;;;;;;;19.93;3.00;;;15.50;66.90;;;;;;5075821;28;20438;-72
2023/05/23 10:32:01;;;;;;;14.27;2.77;;;15.50;68.80;;;;;;5092069;28;20288;-71
2023/05/23 10:34:46;;;;;;;9.63;2.43;;;15.50;68.40;;;;;;5090761;28;20386;-71
2023/05/23 10:37:36;;;;;;;12.13;2.80;;;15.60;67.30;;;;;;5085006;28;20281;-71
2023/05/23 10:40:08;;;;;;;11.47;2.80;;;15.60;64.20;;;;;;5074229;28;20480;-71
2023/05/23 10:42:41;;;;;;;12.37;2.43;;;15.80;63.80;;;;;;5074446;28;20288;-71
2023/05/23 10:45:19;;;;;;;15.97;2.50;;;15.70;62.10;;;;;;5091738;28;20274;-71
2023/05/23 10:47:51;;;;;;;13.40;2.47;;;15.60;63.00;;;;;;5070756;28;20788;-71
2023/05/23 10:50:33;;;;;;;14.90;2.60;;;15.50;63.90;;;;;;5075201;28;20289;-71
2023/05/23 10:53:15;;;;;;;10.00;2.40;;;15.40;65.30;;;;;;5074311;28;20319;-71
2023/05/23 10:55:47;;;;;;;14.43;2.60;;;15.40;65.60;;;;;;5077495;28;20292;-71
2023/05/23 10:58:20;;;;;;;10.83;2.30;;;15.50;64.70;;;;;;5074777;28;20780;-72
2023/05/23 11:01:18;;;;;;;15.00;2.77;;;15.90;63.50;;;;;;5077451;27;20307;-71
2023/05/23 11:03:47;;;;;;;14.73;2.83;;;15.70;63.00;;;;;;5056052;28;20286;-71
2023/05/23 11:06:43;;;;;;;13.50;2.87;;;15.70;63.00;;;;;;5090529;28;20338;-71
2023/05/23 11:09:08;;;;;;;;;;;15.50;64.80;;;;;;5074288;28;20277;-71
2023/05/23 11:11:52;;;;;;;16.27;3.33;;;15.40;64.20;;;;;;5074367;28;20605;-71
2023/05/23 11:14:20;;;;;;;18.73;3.27;;;15.40;65.70;;;;;;5088718;28;20050;-71
2023/05/23 11:16:47;;;;;;;19.87;3.87;;;15.40;65.70;;;;;;5091406;28;20743;-71
2023/05/23 11:19:24;;;;;;;13.87;3.10;;;15.30;65.90;;;;;;5077613;28;20364;-71
2023/05/23 11:21:59;;;;;;;19.47;3.50;;;15.10;67.20;;;;;;5092413;28;20326;-71
2023/05/23 11:24:49;;;;;;;16.30;3.08;;;15.00;67.80;;;;;;5091691;28;20280;-71
2023/05/23 11:27:15;;;;;;;16.40;3.20;;;14.80;67.70;;;;;;5092307;28;20600;-71
2023/05/23 11:29:42;;;;;;;13.77;3.07;;;14.70;67.90;;;;;;5093727;28;20316;-72
2023/05/23 11:32:12;;;;;;;13.30;2.23;;;14.70;67.40;;;;;;5072917;28;20050;-72
2023/05/23 11:34:38;;;;;;;11.23;2.90;;;14.90;66.90;;;;;;5090523;28;20329;-72
2023/05/23 11:37:04;;;;;;;12.53;2.40;;;14.90;64.30;;;;;;5088978;28;20277;-72
2023/05/23 11:39:30;;;;;;;15.60;2.87;;;15.20;63.80;;;;;;5087095;28;20297;-72
2023/05/23 11:42:02;;;;;;;13.00;2.73;;;15.30;62.20;;;;;;5086917;28;20815;-71
2023/05/23 11:44:29;;;;;;;10.90;2.33;;;15.30;63.10;;;;;;5090437;28;20108;-72
2023/05/23 11:47:02;;;;;;;12.60;2.53;;;15.50;62.00;;;;;;5092231;28;20277;-72
2023/05/23 11:49:33;;;;;;;13.07;2.40;;;15.70;61.40;;;;;;5088815;28;20281;-72
2023/05/23 11:52:01;;;;;;;12.27;2.23;;;16.00;62.00;;;;;;5090413;28;20357;-72
2023/05/23 11:54:27;;;;;;;12.00;2.50;;;16.10;60.40;;;;;;5092750;28;20280;-72
2023/05/23 11:56:54;;;;;;;12.10;2.73;;;16.20;60.80;;;;;;5073704;28;20277;-72
2023/05/23 11:59:27;;;;;;;13.47;3.17;;;16.00;60.30;;;;;;5090516;28;20281;-72
2023/05/23 12:01:53;;;;;;;12.13;2.70;;;16.10;60.90;;;;;;5093544;28;21107;-72
2023/05/23 12:04:19;;;;;;;13.13;2.10;;;16.10;60.90;;;;;;5090196;28;20769;-72
2023/05/23 12:06:49;;;;;;;12.03;2.37;;;16.00;61.10;;;;;;5073549;28;20292;-72
2023/05/23 12:09:16;;;;;;;14.53;2.43;;;15.80;62.30;;;;;;5090833;28;20042;-72
2023/05/23 12:11:42;;;;;;;16.27;2.87;;;15.70;62.10;;;;;;5090603;28;20398;-72
2023/05/23 12:14:14;;;;;;;11.17;2.10;;;15.50;61.10;;;;;;5070904;28;20762;-72
2023/05/23 12:16:48;;;;;;;13.17;2.70;;;15.20;62.10;;;;;;5090480;28;20274;-72
2023/05/23 12:19:16;;;;;;;9.73;2.20;;;15.10;63.80;;;;;;5089489;28;20282;-71
2023/05/23 12:21:48;;;;;;;12.37;2.50;;;15.20;62.20;;;;;;5090568;28;20285;-71
2023/05/23 12:24:22;;;;;;;12.77;2.00;;;15.20;60.80;;;;;;5063490;28;20352;-70
2023/05/23 12:26:54;;;;;;;14.13;2.27;;;15.30;61.60;;;;;;5083439;28;20286;-71
2023/05/23 12:29:38;;;;;;;11.47;2.40;;;15.50;61.10;;;;;;5096832;28;20274;-71
2023/05/23 12:32:05;;;;;;;14.50;2.60;;;15.40;59.80;;;;;;5085788;28;20390;-71
2023/05/23 12:34:31;;;;;;;16.07;2.43;;;15.30;60.40;;;;;;5073811;28;20637;-71
2023/05/23 12:36:59;;;;;;;22.33;2.87;;;15.30;60.40;;;;;;5090242;28;20265;-71
2023/05/23 12:39:29;;;;;;;11.10;2.30;;;15.30;61.40;;;;;;5073359;28;20117;-71
2023/05/23 12:42:06;;;;;;;10.80;2.10;;;15.10;60.20;;;;;;5070048;28;20285;-71